sensor_id;sensor_type;location;lat;lon;timestamp;temperature;humidity
21770;DHT22;11046;49.558;8.674;2023-12-22T00:00:04;5.20;99.90
21770;DHT22;11046;49.558;8.674;2023-12-22T00:03:05;5.20;99.90
21770;DHT22;11046;49.558;8.674;2023-12-22T00:06:06;5.10;99.90
21770;DHT22;11046;49.558;8.674;2023-12-22T00:09:06;5.10;99.90
21770;DHT22;11046;49.558;8.674;2023-12-22T00:12:07;5.00;99.90
21770;DHT22;11046;49.558;8.674;2023-12-22T00:15:08;5.00;99.90
21770;DHT22;11046;49.558;8.674;2023-12-22T00:18:08;5.10;99.90
21770;DHT22;11046;49.558;8.674;2023-12-22T00:21:10;5.20;99.90
21770;DHT22;11046;49.558;8.674;2023-12-22T00:24:11;5.20;99.90
21770;DHT22;11046;49.558;8.674;2023-12-22T00:27:12;5.20;99.90
21770;DHT22;11046;49.558;8.674;2023-12-22T00:30:12;5.20;99.90
21770;DHT22;11046;49.558;8.674;2023-12-22T00:33:13;5.20;99.90
21770;DHT22;11046;49.558;8.674;2023-12-22T00:36:14;5.20;99.90
21770;DHT22;11046;49.558;8.674;2023-12-22T00:39:14;5.20;99.90
21770;DHT22;11046;49.558;8.674;2023-12-22T00:42:15;5.20;99.90
21770;DHT22;11046;49.558;8.674;2023-12-22T00:45:15;5.30;99.90
21770;DHT22;11046;49.558;8.674;2023-12-22T00:48:16;5.30;99.90
21770;DHT22;11046;49.558;8.674;2023-12-22T00:51:16;5.30;99.90
21770;DHT22;11046;49.558;8.674;2023-12-22T00:54:17;5.20;99.90
21770;DHT22;11046;49.558;8.674;2023-12-22T00:57:18;5.20;99.90
21770;DHT22;11046;49.558;8.674;2023-12-22T01:00:18;5.30;99.90
21770;DHT22;11046;49.558;8.674;2023-12-22T01:03:19;5.30;99.90
21770;DHT22;11046;49.558;8.674;2023-12-22T01:06:20;5.40;99.90
21770;DHT22;11046;49.558;8.674;2023-12-22T01:09:20;5.40;99.90
21770;DHT22;11046;49.558;8.674;2023-12-22T01:12:21;5.40;99.90
21770;DHT22;11046;49.558;8.674;2023-12-22T01:15:21;5.30;99.90
21770;DHT22;11046;49.558;8.674;2023-12-22T01:18:23;5.30;99.90
21770;DHT22;11046;49.558;8.674;2023-12-22T01:21:25;5.20;99.90
21770;DHT22;11046;49.558;8.674;2023-12-22T01:24:26;5.30;99.90
21770;DHT22;11046;49.558;8.674;2023-12-22T01:27:26;5.30;99.90
21770;DHT22;11046;49.558;8.674;2023-12-22T01:30:27;5.20;99.90
21770;DHT22;11046;49.558;8.674;2023-12-22T01:33:28;5.20;99.90
21770;DHT22;11046;49.558;8.674;2023-12-22T01:36:29;5.30;99.90
21770;DHT22;11046;49.558;8.674;2023-12-22T01:39:30;5.30;99.90
21770;DHT22;11046;49.558;8.674;2023-12-22T01:42:31;5.30;99.90
21770;DHT22;11046;49.558;8.674;2023-12-22T01:45:31;5.10;99.90
21770;DHT22;11046;49.558;8.674;2023-12-22T01:48:32;4.90;99.90
21770;DHT22;11046;49.558;8.674;2023-12-22T01:51:34;4.70;99.90
21770;DHT22;11046;49.558;8.674;2023-12-22T01:54:36;4.70;99.90
21770;DHT22;11046;49.558;8.674;2023-12-22T01:57:36;4.80;99.90
21770;DHT22;11046;49.558;8.674;2023-12-22T02:00:37;4.80;99.90
21770;DHT22;11046;49.558;8.674;2023-12-22T02:03:38;4.90;99.90
21770;DHT22;11046;49.558;8.674;2023-12-22T02:06:38;4.90;99.90
21770;DHT22;11046;49.558;8.674;2023-12-22T02:09:39;5.00;99.90
21770;DHT22;11046;49.558;8.674;2023-12-22T02:12:40;5.00;99.90
21770;DHT22;11046;49.558;8.674;2023-12-22T02:15:40;5.10;99.90
21770;DHT22;11046;49.558;8.674;2023-12-22T02:18:43;5.10;99.90
21770;DHT22;11046;49.558;8.674;2023-12-22T02:22:03;5.20;99.90
21770;DHT22;11046;49.558;8.674;2023-12-22T02:25:04;5.20;99.90
21770;DHT22;11046;49.558;8.674;2023-12-22T02:28:10;5.10;99.90
21770;DHT22;11046;49.558;8.674;2023-12-22T02:31:22;5.10;99.90
21770;DHT22;11046;49.558;8.674;2023-12-22T02:34:26;5.20;99.90
21770;DHT22;11046;49.558;8.674;2023-12-22T02:37:28;5.20;99.90
21770;DHT22;11046;49.558;8.674;2023-12-22T02:40:30;5.20;99.90
21770;DHT22;11046;49.558;8.674;2023-12-22T02:43:31;5.10;99.90
21770;DHT22;11046;49.558;8.674;2023-12-22T02:46:32;5.10;99.90
21770;DHT22;11046;49.558;8.674;2023-12-22T02:49:32;5.10;99.90
21770;DHT22;11046;49.558;8.674;2023-12-22T02:52:33;5.10;99.90
21770;DHT22;11046;49.558;8.674;2023-12-22T02:55:34;5.20;99.90
21770;DHT22;11046;49.558;8.674;2023-12-22T02:58:34;5.20;99.90
21770;DHT22;11046;49.558;8.674;2023-12-22T03:01:35;5.30;99.90
21770;DHT22;11046;49.558;8.674;2023-12-22T03:04:35;5.30;99.90
21770;DHT22;11046;49.558;8.674;2023-12-22T03:07:36;5.40;99.90
21770;DHT22;11046;49.558;8.674;2023-12-22T03:10:36;5.40;99.90
21770;DHT22;11046;49.558;8.674;2023-12-22T03:13:37;5.40;99.90
21770;DHT22;11046;49.558;8.674;2023-12-22T03:16:37;5.50;99.90
21770;DHT22;11046;49.558;8.674;2023-12-22T03:19:39;5.50;99.90
21770;DHT22;11046;49.558;8.674;2023-12-22T03:22:39;5.50;99.90
21770;DHT22;11046;49.558;8.674;2023-12-22T03:25:40;5.60;99.90
21770;DHT22;11046;49.558;8.674;2023-12-22T03:28:41;5.60;99.90
21770;DHT22;11046;49.558;8.674;2023-12-22T03:31:41;5.60;99.90
21770;DHT22;11046;49.558;8.674;2023-12-22T03:34:42;5.60;99.90
21770;DHT22;11046;49.558;8.674;2023-12-22T03:37:42;5.60;99.90
21770;DHT22;11046;49.558;8.674;2023-12-22T03:40:43;5.60;99.90
21770;DHT22;11046;49.558;8.674;2023-12-22T03:43:43;5.70;99.90
21770;DHT22;11046;49.558;8.674;2023-12-22T03:46:44;5.60;99.90
21770;DHT22;11046;49.558;8.674;2023-12-22T03:49:45;5.60;99.90
21770;DHT22;11046;49.558;8.674;2023-12-22T03:52:45;5.60;99.90
21770;DHT22;11046;49.558;8.674;2023-12-22T03:55:46;5.70;99.90
21770;DHT22;11046;49.558;8.674;2023-12-22T03:58:46;5.60;99.90
21770;DHT22;11046;49.558;8.674;2023-12-22T04:01:51;5.70;99.90
21770;DHT22;11046;49.558;8.674;2023-12-22T04:04:53;5.70;99.90
21770;DHT22;11046;49.558;8.674;2023-12-22T04:07:53;5.70;99.90
21770;DHT22;11046;49.558;8.674;2023-12-22T04:10:54;5.70;99.90
21770;DHT22;11046;49.558;8.674;2023-12-22T04:13:54;5.80;99.90
21770;DHT22;11046;49.558;8.674;2023-12-22T04:16:55;5.70;99.90
21770;DHT22;11046;49.558;8.674;2023-12-22T04:19:56;5.60;99.90
21770;DHT22;11046;49.558;8.674;2023-12-22T04:22:57;5.60;99.90
21770;DHT22;11046;49.558;8.674;2023-12-22T04:25:58;5.50;99.90
21770;DHT22;11046;49.558;8.674;2023-12-22T04:28:59;5.50;99.90
21770;DHT22;11046;49.558;8.674;2023-12-22T04:31:59;5.50;99.90
21770;DHT22;11046;49.558;8.674;2023-12-22T04:35:00;5.40;99.90
21770;DHT22;11046;49.558;8.674;2023-12-22T04:38:01;5.30;99.90
21770;DHT22;11046;49.558;8.674;2023-12-22T04:41:01;5.40;99.90
21770;DHT22;11046;49.558;8.674;2023-12-22T04:44:02;5.30;99.90
21770;DHT22;11046;49.558;8.674;2023-12-22T04:47:04;5.40;99.90
21770;DHT22;11046;49.558;8.674;2023-12-22T04:50:05;5.40;99.90
21770;DHT22;11046;49.558;8.674;2023-12-22T04:53:06;5.50;99.90
21770;DHT22;11046;49.558;8.674;2023-12-22T04:56:06;5.60;99.90
21770;DHT22;11046;49.558;8.674;2023-12-22T04:59:07;5.60;99.90
21770;DHT22;11046;49.558;8.674;2023-12-22T05:02:08;5.60;99.90
21770;DHT22;11046;49.558;8.674;2023-12-22T05:05:10;5.60;99.90
21770;DHT22;11046;49.558;8.674;2023-12-22T05:08:12;5.60;99.90
21770;DHT22;11046;49.558;8.674;2023-12-22T05:11:12;5.60;99.90
21770;DHT22;11046;49.558;8.674;2023-12-22T05:14:13;5.60;99.90
21770;DHT22;11046;49.558;8.674;2023-12-22T05:17:13;5.60;99.90
21770;DHT22;11046;49.558;8.674;2023-12-22T05:20:14;5.50;99.90
21770;DHT22;11046;49.558;8.674;2023-12-22T05:23:16;5.40;99.90
21770;DHT22;11046;49.558;8.674;2023-12-22T05:26:20;5.30;99.90
21770;DHT22;11046;49.558;8.674;2023-12-22T05:29:21;5.30;99.90
21770;DHT22;11046;49.558;8.674;2023-12-22T05:32:21;5.20;99.90
21770;DHT22;11046;49.558;8.674;2023-12-22T05:35:22;5.20;99.90
21770;DHT22;11046;49.558;8.674;2023-12-22T05:38:22;5.30;99.90
21770;DHT22;11046;49.558;8.674;2023-12-22T05:41:23;5.20;99.90
21770;DHT22;11046;49.558;8.674;2023-12-22T05:44:23;5.20;99.90
21770;DHT22;11046;49.558;8.674;2023-12-22T05:47:24;5.10;99.90
21770;DHT22;11046;49.558;8.674;2023-12-22T05:50:25;5.10;99.90
21770;DHT22;11046;49.558;8.674;2023-12-22T05:53:26;5.20;99.90
21770;DHT22;11046;49.558;8.674;2023-12-22T05:56:27;5.20;99.90
21770;DHT22;11046;49.558;8.674;2023-12-22T05:59:27;5.20;99.90
21770;DHT22;11046;49.558;8.674;2023-12-22T06:02:28;5.30;99.90
21770;DHT22;11046;49.558;8.674;2023-12-22T06:05:28;5.40;99.90
21770;DHT22;11046;49.558;8.674;2023-12-22T06:08:29;5.50;99.90
21770;DHT22;11046;49.558;8.674;2023-12-22T06:11:30;5.60;99.90
21770;DHT22;11046;49.558;8.674;2023-12-22T06:14:31;5.60;99.90
21770;DHT22;11046;49.558;8.674;2023-12-22T06:17:32;5.60;99.90
21770;DHT22;11046;49.558;8.674;2023-12-22T06:20:33;5.60;99.90
21770;DHT22;11046;49.558;8.674;2023-12-22T06:23:34;5.60;99.90
21770;DHT22;11046;49.558;8.674;2023-12-22T06:26:34;5.60;99.90
21770;DHT22;11046;49.558;8.674;2023-12-22T06:29:35;5.60;99.90
21770;DHT22;11046;49.558;8.674;2023-12-22T06:32:35;5.60;99.90
21770;DHT22;11046;49.558;8.674;2023-12-22T06:35:40;5.50;99.90
21770;DHT22;11046;49.558;8.674;2023-12-22T06:38:45;5.60;99.90
21770;DHT22;11046;49.558;8.674;2023-12-22T06:41:46;5.60;99.90
21770;DHT22;11046;49.558;8.674;2023-12-22T06:44:46;5.60;99.90
21770;DHT22;11046;49.558;8.674;2023-12-22T06:47:47;5.60;99.90
21770;DHT22;11046;49.558;8.674;2023-12-22T06:50:47;5.60;99.90
21770;DHT22;11046;49.558;8.674;2023-12-22T06:53:49;5.50;99.90
21770;DHT22;11046;49.558;8.674;2023-12-22T06:56:50;5.50;99.90
21770;DHT22;11046;49.558;8.674;2023-12-22T06:59:51;5.60;99.90
21770;DHT22;11046;49.558;8.674;2023-12-22T07:02:58;5.80;99.90
21770;DHT22;11046;49.558;8.674;2023-12-22T07:06:00;5.90;99.90
21770;DHT22;11046;49.558;8.674;2023-12-22T07:12:19;6.00;99.90
21770;DHT22;11046;49.558;8.674;2023-12-22T07:15:20;6.10;99.90
21770;DHT22;11046;49.558;8.674;2023-12-22T07:18:21;6.20;99.90
21770;DHT22;11046;49.558;8.674;2023-12-22T07:21:22;6.30;99.90
21770;DHT22;11046;49.558;8.674;2023-12-22T07:24:23;6.30;99.90
21770;DHT22;11046;49.558;8.674;2023-12-22T07:27:23;6.40;99.90
21770;DHT22;11046;49.558;8.674;2023-12-22T07:30:24;6.40;99.90
21770;DHT22;11046;49.558;8.674;2023-12-22T07:33:25;6.50;99.90
21770;DHT22;11046;49.558;8.674;2023-12-22T07:36:26;6.50;99.90
21770;DHT22;11046;49.558;8.674;2023-12-22T07:39:26;6.50;99.90
21770;DHT22;11046;49.558;8.674;2023-12-22T07:42:27;6.50;99.90
21770;DHT22;11046;49.558;8.674;2023-12-22T07:45:28;6.60;99.90
21770;DHT22;11046;49.558;8.674;2023-12-22T07:48:29;6.60;99.90
21770;DHT22;11046;49.558;8.674;2023-12-22T07:51:29;6.60;99.90
21770;DHT22;11046;49.558;8.674;2023-12-22T07:54:30;6.60;99.90
21770;DHT22;11046;49.558;8.674;2023-12-22T07:57:31;6.60;99.90
21770;DHT22;11046;49.558;8.674;2023-12-22T08:00:31;6.70;99.90
21770;DHT22;11046;49.558;8.674;2023-12-22T08:03:33;6.70;99.90
21770;DHT22;11046;49.558;8.674;2023-12-22T08:06:34;6.80;99.90
21770;DHT22;11046;49.558;8.674;2023-12-22T08:09:35;6.80;99.90
21770;DHT22;11046;49.558;8.674;2023-12-22T08:12:36;6.80;99.90
21770;DHT22;11046;49.558;8.674;2023-12-22T08:15:36;6.80;99.90
21770;DHT22;11046;49.558;8.674;2023-12-22T08:18:37;6.80;99.90
21770;DHT22;11046;49.558;8.674;2023-12-22T08:21:37;6.80;99.90
21770;DHT22;11046;49.558;8.674;2023-12-22T08:24:38;6.90;99.90
21770;DHT22;11046;49.558;8.674;2023-12-22T08:27:42;6.90;99.90
21770;DHT22;11046;49.558;8.674;2023-12-22T08:30:43;7.00;99.90
21770;DHT22;11046;49.558;8.674;2023-12-22T08:33:44;7.00;99.90
21770;DHT22;11046;49.558;8.674;2023-12-22T08:36:45;7.00;99.90
21770;DHT22;11046;49.558;8.674;2023-12-22T08:39:46;7.00;99.90
21770;DHT22;11046;49.558;8.674;2023-12-22T08:42:46;7.00;99.90
21770;DHT22;11046;49.558;8.674;2023-12-22T08:45:47;6.90;99.90
21770;DHT22;11046;49.558;8.674;2023-12-22T08:48:48;7.00;99.90
21770;DHT22;11046;49.558;8.674;2023-12-22T08:51:48;7.00;99.90
21770;DHT22;11046;49.558;8.674;2023-12-22T08:54:49;7.00;99.90
21770;DHT22;11046;49.558;8.674;2023-12-22T08:57:53;7.00;99.90
21770;DHT22;11046;49.558;8.674;2023-12-22T09:00:53;7.00;99.90
21770;DHT22;11046;49.558;8.674;2023-12-22T09:03:54;7.10;99.90
21770;DHT22;11046;49.558;8.674;2023-12-22T09:06:55;7.10;99.90
21770;DHT22;11046;49.558;8.674;2023-12-22T09:09:55;7.00;99.90
21770;DHT22;11046;49.558;8.674;2023-12-22T09:12:56;7.00;99.90
21770;DHT22;11046;49.558;8.674;2023-12-22T09:15:57;7.00;99.90
21770;DHT22;11046;49.558;8.674;2023-12-22T09:18:58;7.10;99.90
21770;DHT22;11046;49.558;8.674;2023-12-22T09:21:59;7.10;99.90
21770;DHT22;11046;49.558;8.674;2023-12-22T09:25:00;7.10;99.90
21770;DHT22;11046;49.558;8.674;2023-12-22T09:28:00;7.10;99.90
21770;DHT22;11046;49.558;8.674;2023-12-22T09:31:01;7.20;99.90
21770;DHT22;11046;49.558;8.674;2023-12-22T09:34:02;7.20;99.90
21770;DHT22;11046;49.558;8.674;2023-12-22T09:37:03;7.20;99.90
21770;DHT22;11046;49.558;8.674;2023-12-22T09:40:04;7.20;99.90
21770;DHT22;11046;49.558;8.674;2023-12-22T09:43:06;7.20;99.90
21770;DHT22;11046;49.558;8.674;2023-12-22T09:46:08;7.20;99.90
21770;DHT22;11046;49.558;8.674;2023-12-22T09:49:09;7.20;99.90
21770;DHT22;11046;49.558;8.674;2023-12-22T09:52:11;7.20;99.90
21770;DHT22;11046;49.558;8.674;2023-12-22T09:55:16;7.30;99.90
21770;DHT22;11046;49.558;8.674;2023-12-22T09:58:18;7.30;99.90
21770;DHT22;11046;49.558;8.674;2023-12-22T10:01:20;7.20;99.90
21770;DHT22;11046;49.558;8.674;2023-12-22T10:04:23;7.20;99.90
21770;DHT22;11046;49.558;8.674;2023-12-22T10:07:24;7.30;99.90
21770;DHT22;11046;49.558;8.674;2023-12-22T10:10:26;7.30;99.90
21770;DHT22;11046;49.558;8.674;2023-12-22T10:13:27;7.40;99.90
21770;DHT22;11046;49.558;8.674;2023-12-22T10:16:28;7.40;99.90
21770;DHT22;11046;49.558;8.674;2023-12-22T10:19:29;7.40;99.90
21770;DHT22;11046;49.558;8.674;2023-12-22T10:22:30;7.50;99.90
21770;DHT22;11046;49.558;8.674;2023-12-22T10:25:31;7.60;99.90
21770;DHT22;11046;49.558;8.674;2023-12-22T10:28:35;7.60;99.90
21770;DHT22;11046;49.558;8.674;2023-12-22T10:31:42;7.60;99.90
21770;DHT22;11046;49.558;8.674;2023-12-22T10:34:43;7.70;99.90
21770;DHT22;11046;49.558;8.674;2023-12-22T10:37:45;7.70;99.90
21770;DHT22;11046;49.558;8.674;2023-12-22T10:40:46;7.80;99.90
21770;DHT22;11046;49.558;8.674;2023-12-22T10:43:47;7.80;99.90
21770;DHT22;11046;49.558;8.674;2023-12-22T10:46:51;7.90;99.90
21770;DHT22;11046;49.558;8.674;2023-12-22T10:49:52;7.90;99.90
21770;DHT22;11046;49.558;8.674;2023-12-22T10:52:54;7.90;99.90
21770;DHT22;11046;49.558;8.674;2023-12-22T10:55:58;7.90;99.90
21770;DHT22;11046;49.558;8.674;2023-12-22T10:58:58;7.90;99.90
21770;DHT22;11046;49.558;8.674;2023-12-22T11:02:01;8.00;99.90
21770;DHT22;11046;49.558;8.674;2023-12-22T11:05:04;8.00;99.90
21770;DHT22;11046;49.558;8.674;2023-12-22T11:08:14;8.00;99.90
21770;DHT22;11046;49.558;8.674;2023-12-22T11:11:20;8.00;99.90
21770;DHT22;11046;49.558;8.674;2023-12-22T11:14:27;8.10;99.90
21770;DHT22;11046;49.558;8.674;2023-12-22T11:17:30;8.10;99.90
21770;DHT22;11046;49.558;8.674;2023-12-22T11:20:32;8.10;99.90
21770;DHT22;11046;49.558;8.674;2023-12-22T11:23:35;8.10;99.90
21770;DHT22;11046;49.558;8.674;2023-12-22T11:26:37;8.10;99.90
21770;DHT22;11046;49.558;8.674;2023-12-22T11:29:40;8.10;99.90
21770;DHT22;11046;49.558;8.674;2023-12-22T11:32:41;8.20;99.90
21770;DHT22;11046;49.558;8.674;2023-12-22T11:35:46;8.20;99.90
21770;DHT22;11046;49.558;8.674;2023-12-22T11:38:52;8.10;99.90
21770;DHT22;11046;49.558;8.674;2023-12-22T11:41:54;8.10;99.90
21770;DHT22;11046;49.558;8.674;2023-12-22T11:44:55;8.10;99.90
21770;DHT22;11046;49.558;8.674;2023-12-22T11:47:56;8.10;99.90
21770;DHT22;11046;49.558;8.674;2023-12-22T11:50:57;8.00;99.90
21770;DHT22;11046;49.558;8.674;2023-12-22T11:53:58;8.00;99.90
21770;DHT22;11046;49.558;8.674;2023-12-22T11:57:02;7.90;99.90
21770;DHT22;11046;49.558;8.674;2023-12-22T12:00:07;7.90;99.90
21770;DHT22;11046;49.558;8.674;2023-12-22T12:03:14;7.90;99.90
21770;DHT22;11046;49.558;8.674;2023-12-22T12:09:45;7.90;99.90
21770;DHT22;11046;49.558;8.674;2023-12-22T12:12:45;7.90;99.90
21770;DHT22;11046;49.558;8.674;2023-12-22T12:15:46;7.90;99.90
21770;DHT22;11046;49.558;8.674;2023-12-22T12:18:47;7.90;99.90
21770;DHT22;11046;49.558;8.674;2023-12-22T12:21:49;7.90;99.90
21770;DHT22;11046;49.558;8.674;2023-12-22T12:24:50;7.90;99.90
21770;DHT22;11046;49.558;8.674;2023-12-22T12:28:02;7.90;99.90
21770;DHT22;11046;49.558;8.674;2023-12-22T12:31:08;7.90;99.90
21770;DHT22;11046;49.558;8.674;2023-12-22T12:34:12;7.90;99.90
21770;DHT22;11046;49.558;8.674;2023-12-22T12:37:14;8.00;99.90
21770;DHT22;11046;49.558;8.674;2023-12-22T12:40:17;8.00;99.90
21770;DHT22;11046;49.558;8.674;2023-12-22T12:43:20;8.00;99.90
21770;DHT22;11046;49.558;8.674;2023-12-22T12:46:21;8.10;99.90
21770;DHT22;11046;49.558;8.674;2023-12-22T12:49:21;8.10;99.90
21770;DHT22;11046;49.558;8.674;2023-12-22T12:52:27;8.20;99.90
21770;DHT22;11046;49.558;8.674;2023-12-22T12:55:28;8.20;99.90
21770;DHT22;11046;49.558;8.674;2023-12-22T12:58:30;8.20;99.90
21770;DHT22;11046;49.558;8.674;2023-12-22T13:01:31;8.30;99.90
21770;DHT22;11046;49.558;8.674;2023-12-22T13:04:38;8.30;99.90
21770;DHT22;11046;49.558;8.674;2023-12-22T13:07:39;8.30;99.90
21770;DHT22;11046;49.558;8.674;2023-12-22T13:10:40;8.30;99.90
21770;DHT22;11046;49.558;8.674;2023-12-22T13:13:42;8.30;99.90
21770;DHT22;11046;49.558;8.674;2023-12-22T13:16:43;8.40;99.90
21770;DHT22;11046;49.558;8.674;2023-12-22T13:19:44;8.50;99.90
21770;DHT22;11046;49.558;8.674;2023-12-22T13:22:45;8.50;99.90
21770;DHT22;11046;49.558;8.674;2023-12-22T13:25:45;8.50;99.90
21770;DHT22;11046;49.558;8.674;2023-12-22T13:28:47;8.50;99.90
21770;DHT22;11046;49.558;8.674;2023-12-22T13:31:47;8.50;99.90
21770;DHT22;11046;49.558;8.674;2023-12-22T13:34:53;8.50;99.90
21770;DHT22;11046;49.558;8.674;2023-12-22T13:37:54;8.50;99.90
21770;DHT22;11046;49.558;8.674;2023-12-22T13:40:54;8.60;99.90
21770;DHT22;11046;49.558;8.674;2023-12-22T13:43:55;8.60;99.90
21770;DHT22;11046;49.558;8.674;2023-12-22T13:47:03;8.60;99.90
21770;DHT22;11046;49.558;8.674;2023-12-22T13:50:05;8.70;99.90
21770;DHT22;11046;49.558;8.674;2023-12-22T13:53:13;8.70;99.90
21770;DHT22;11046;49.558;8.674;2023-12-22T13:56:14;8.70;99.90
21770;DHT22;11046;49.558;8.674;2023-12-22T13:59:14;8.80;99.90
21770;DHT22;11046;49.558;8.674;2023-12-22T14:02:15;8.80;99.90
21770;DHT22;11046;49.558;8.674;2023-12-22T14:05:16;8.80;99.90
21770;DHT22;11046;49.558;8.674;2023-12-22T14:08:17;8.90;99.90
21770;DHT22;11046;49.558;8.674;2023-12-22T14:11:19;8.90;99.90
21770;DHT22;11046;49.558;8.674;2023-12-22T14:14:20;8.90;99.90
21770;DHT22;11046;49.558;8.674;2023-12-22T14:17:24;8.90;99.90
21770;DHT22;11046;49.558;8.674;2023-12-22T14:20:25;8.90;99.90
21770;DHT22;11046;49.558;8.674;2023-12-22T14:23:26;9.00;99.90
21770;DHT22;11046;49.558;8.674;2023-12-22T14:26:26;9.00;99.90
21770;DHT22;11046;49.558;8.674;2023-12-22T14:29:27;9.00;99.90
21770;DHT22;11046;49.558;8.674;2023-12-22T14:32:27;8.90;99.90
21770;DHT22;11046;49.558;8.674;2023-12-22T14:35:30;9.00;99.90
21770;DHT22;11046;49.558;8.674;2023-12-22T14:38:30;9.00;99.90
21770;DHT22;11046;49.558;8.674;2023-12-22T14:41:31;9.00;99.90
21770;DHT22;11046;49.558;8.674;2023-12-22T14:44:32;9.00;99.90
21770;DHT22;11046;49.558;8.674;2023-12-22T14:47:32;9.00;99.90
21770;DHT22;11046;49.558;8.674;2023-12-22T14:50:34;9.10;99.90
21770;DHT22;11046;49.558;8.674;2023-12-22T14:53:34;9.00;99.90
21770;DHT22;11046;49.558;8.674;2023-12-22T14:56:38;9.00;99.90
21770;DHT22;11046;49.558;8.674;2023-12-22T14:59:41;9.10;99.90
21770;DHT22;11046;49.558;8.674;2023-12-22T15:02:44;9.10;99.90
21770;DHT22;11046;49.558;8.674;2023-12-22T15:05:45;9.10;99.90
21770;DHT22;11046;49.558;8.674;2023-12-22T15:08:45;9.10;99.90
21770;DHT22;11046;49.558;8.674;2023-12-22T15:11:46;9.20;99.90
21770;DHT22;11046;49.558;8.674;2023-12-22T15:14:47;9.20;99.90
21770;DHT22;11046;49.558;8.674;2023-12-22T15:17:48;9.20;99.90
21770;DHT22;11046;49.558;8.674;2023-12-22T15:20:52;9.20;99.90
21770;DHT22;11046;49.558;8.674;2023-12-22T15:23:54;9.20;99.90
21770;DHT22;11046;49.558;8.674;2023-12-22T15:26:55;9.20;99.90
21770;DHT22;11046;49.558;8.674;2023-12-22T15:29:55;9.10;99.90
21770;DHT22;11046;49.558;8.674;2023-12-22T15:33:03;9.20;99.90
21770;DHT22;11046;49.558;8.674;2023-12-22T15:36:07;9.20;99.90
21770;DHT22;11046;49.558;8.674;2023-12-22T15:39:07;9.20;99.90
21770;DHT22;11046;49.558;8.674;2023-12-22T15:42:08;9.20;99.90
21770;DHT22;11046;49.558;8.674;2023-12-22T15:45:10;9.10;99.90
21770;DHT22;11046;49.558;8.674;2023-12-22T15:48:14;9.10;99.90
21770;DHT22;11046;49.558;8.674;2023-12-22T15:51:15;9.10;99.90
21770;DHT22;11046;49.558;8.674;2023-12-22T15:54:16;9.10;99.90
21770;DHT22;11046;49.558;8.674;2023-12-22T15:57:17;9.10;99.90
21770;DHT22;11046;49.558;8.674;2023-12-22T16:00:18;9.10;99.90
21770;DHT22;11046;49.558;8.674;2023-12-22T16:03:19;9.00;99.90
21770;DHT22;11046;49.558;8.674;2023-12-22T16:06:19;9.10;99.90
21770;DHT22;11046;49.558;8.674;2023-12-22T16:09:20;9.10;99.90
21770;DHT22;11046;49.558;8.674;2023-12-22T16:12:21;9.10;99.90
21770;DHT22;11046;49.558;8.674;2023-12-22T16:15:22;9.10;99.90
21770;DHT22;11046;49.558;8.674;2023-12-22T16:18:23;9.10;99.90
21770;DHT22;11046;49.558;8.674;2023-12-22T16:21:23;9.10;99.90
21770;DHT22;11046;49.558;8.674;2023-12-22T16:24:24;9.10;99.90
21770;DHT22;11046;49.558;8.674;2023-12-22T16:27:27;9.10;99.90
21770;DHT22;11046;49.558;8.674;2023-12-22T16:30:28;9.10;99.90
21770;DHT22;11046;49.558;8.674;2023-12-22T16:33:32;9.10;99.90
21770;DHT22;11046;49.558;8.674;2023-12-22T16:36:32;9.10;99.90
21770;DHT22;11046;49.558;8.674;2023-12-22T16:39:33;9.10;99.90
21770;DHT22;11046;49.558;8.674;2023-12-22T16:42:34;9.20;99.90
21770;DHT22;11046;49.558;8.674;2023-12-22T16:45:38;9.10;99.90
21770;DHT22;11046;49.558;8.674;2023-12-22T16:48:38;9.20;99.90
21770;DHT22;11046;49.558;8.674;2023-12-22T16:51:45;9.20;99.90
21770;DHT22;11046;49.558;8.674;2023-12-22T16:54:46;9.20;99.90
21770;DHT22;11046;49.558;8.674;2023-12-22T16:57:46;9.20;99.90
21770;DHT22;11046;49.558;8.674;2023-12-22T17:00:47;9.20;99.90
21770;DHT22;11046;49.558;8.674;2023-12-22T17:03:54;9.20;99.90
21770;DHT22;11046;49.558;8.674;2023-12-22T17:06:55;9.10;99.90
21770;DHT22;11046;49.558;8.674;2023-12-22T17:09:55;9.20;99.90
21770;DHT22;11046;49.558;8.674;2023-12-22T17:12:56;9.20;99.90
21770;DHT22;11046;49.558;8.674;2023-12-22T17:15:57;9.20;99.90
21770;DHT22;11046;49.558;8.674;2023-12-22T17:18:57;9.20;99.90
21770;DHT22;11046;49.558;8.674;2023-12-22T17:21:58;9.30;99.90
21770;DHT22;11046;49.558;8.674;2023-12-22T17:24:59;9.30;99.90
21770;DHT22;11046;49.558;8.674;2023-12-22T17:28:00;9.30;99.90
21770;DHT22;11046;49.558;8.674;2023-12-22T17:31:01;9.30;99.90
21770;DHT22;11046;49.558;8.674;2023-12-22T17:34:06;9.40;99.90
21770;DHT22;11046;49.558;8.674;2023-12-22T17:37:08;9.40;99.90
21770;DHT22;11046;49.558;8.674;2023-12-22T17:40:12;9.40;99.90
21770;DHT22;11046;49.558;8.674;2023-12-22T17:43:12;9.40;99.90
21770;DHT22;11046;49.558;8.674;2023-12-22T17:46:15;9.40;99.90
21770;DHT22;11046;49.558;8.674;2023-12-22T17:49:16;9.40;99.90
21770;DHT22;11046;49.558;8.674;2023-12-22T17:52:18;9.40;99.90
21770;DHT22;11046;49.558;8.674;2023-12-22T17:55:21;9.40;99.90
21770;DHT22;11046;49.558;8.674;2023-12-22T17:58:25;9.40;99.90
21770;DHT22;11046;49.558;8.674;2023-12-22T18:01:26;9.40;99.90
21770;DHT22;11046;49.558;8.674;2023-12-22T18:04:27;9.40;99.90
21770;DHT22;11046;49.558;8.674;2023-12-22T18:07:27;9.50;99.90
21770;DHT22;11046;49.558;8.674;2023-12-22T18:10:31;9.40;99.90
21770;DHT22;11046;49.558;8.674;2023-12-22T18:13:32;9.50;99.90
21770;DHT22;11046;49.558;8.674;2023-12-22T18:16:42;9.40;99.90
21770;DHT22;11046;49.558;8.674;2023-12-22T18:19:43;9.40;99.90
21770;DHT22;11046;49.558;8.674;2023-12-22T18:22:44;9.40;99.90
21770;DHT22;11046;49.558;8.674;2023-12-22T18:25:45;9.40;99.90
21770;DHT22;11046;49.558;8.674;2023-12-22T18:28:48;9.40;99.90
21770;DHT22;11046;49.558;8.674;2023-12-22T18:31:49;9.40;99.90
21770;DHT22;11046;49.558;8.674;2023-12-22T18:34:50;9.40;99.90
21770;DHT22;11046;49.558;8.674;2023-12-22T18:37:51;9.40;99.90
21770;DHT22;11046;49.558;8.674;2023-12-22T18:40:55;9.40;99.90
21770;DHT22;11046;49.558;8.674;2023-12-22T18:43:55;9.40;99.90
21770;DHT22;11046;49.558;8.674;2023-12-22T18:46:59;9.40;99.90
21770;DHT22;11046;49.558;8.674;2023-12-22T18:50:00;9.40;99.90
21770;DHT22;11046;49.558;8.674;2023-12-22T18:53:01;9.40;99.90
21770;DHT22;11046;49.558;8.674;2023-12-22T18:56:03;9.40;99.90
21770;DHT22;11046;49.558;8.674;2023-12-22T18:59:04;9.40;99.90
21770;DHT22;11046;49.558;8.674;2023-12-22T19:02:05;9.40;99.90
21770;DHT22;11046;49.558;8.674;2023-12-22T19:05:06;9.40;99.90
21770;DHT22;11046;49.558;8.674;2023-12-22T19:08:09;9.40;99.90
21770;DHT22;11046;49.558;8.674;2023-12-22T19:11:10;9.40;99.90
21770;DHT22;11046;49.558;8.674;2023-12-22T19:14:11;9.40;99.90
21770;DHT22;11046;49.558;8.674;2023-12-22T19:17:12;9.40;99.90
21770;DHT22;11046;49.558;8.674;2023-12-22T19:20:12;9.40;99.90
21770;DHT22;11046;49.558;8.674;2023-12-22T19:23:14;9.40;99.90
21770;DHT22;11046;49.558;8.674;2023-12-22T19:26:14;9.40;99.90
21770;DHT22;11046;49.558;8.674;2023-12-22T19:29:15;9.40;99.90